Elmer M — WYZ8282 — position and weather

sailwx.info

Track history (hours):
 
Tides and Currents Weather Stations Pressure Air Temp Water Temp Dewpoint Dewpoint Depression Visibility Wind Speed Wind Dir Waves Ship Positions

Elmer M

Owner: Manson Construction Co., SEATTLE, WA. More information available from US FCC via Universal Licensing System and Coast Guard Vessel Documentation Center.

Last reported at 2018-Aug-17 21:11 UTC. Time now 2018-Aug-19 15:19 UTC.
Position N 33°47' W 118°15'.

; draft 6.5 m.

MMSI: 365903144.

Date/timePositionNaut miles runAvg speedWind from/ knotsBaromVisibWave heightAir tempDewpointWater temp
2018-Aug-17 21:11N 33°47' W 118°15'0 0.6
2018-Aug-17 21:00N 33°47' W 118°15'3 5.2
2018-Aug-17 20:30N 33°44' W 118°17'3 5.3
2018-Aug-17 20:00N 33°43' W 118°14'2 3.8
2018-Aug-17 19:30N 33°45' W 118°13'0 0.1
2018-Aug-17 19:00N 33°45' W 118°13'0 0.6
2018-Aug-17 18:30N 33°45' W 118°13'1 2.1
2018-Aug-17 18:00N 33°46' W 118°15'1 1.2
2018-Aug-17 17:30N 33°47' W 118°15'0 0.1
2018-Aug-17 17:00N 33°47' W 118°15'0 0.0
2018-Aug-17 16:30N 33°47' W 118°15'0 0.0
2018-Aug-17 16:00N 33°47' W 118°15'0 0.1
2018-Aug-17 15:30N 33°47' W 118°15'0 0.2
2018-Aug-17 15:00N 33°47' W 118°15'  
2018-Aug-14 21:46N 33°47' W 118°15'0 0.0
2018-Aug-14 21:30N 33°47' W 118°15'0 0.0
2018-Aug-14 21:01N 33°47' W 118°15'0 0.0
2018-Aug-14 20:31N 33°47' W 118°15'0 0.0
2018-Aug-14 20:00N 33°47' W 118°15'0 0.0
2018-Aug-14 19:30N 33°47' W 118°15'0 0.0
2018-Aug-14 19:00N 33°47' W 118°15'0 0.0
2018-Aug-14 18:30N 33°47' W 118°15'0 0.0
2018-Aug-14 18:01N 33°47' W 118°15'0 0.1
2018-Aug-14 17:31N 33°47' W 118°15'0 0.0
2018-Aug-14 17:01N 33°47' W 118°15'0 0.0
2018-Aug-14 16:31N 33°47' W 118°15'0 0.1
2018-Aug-14 16:01N 33°47' W 118°15'0 0.0
2018-Aug-14 15:30N 33°47' W 118°15'0 0.0
2018-Aug-14 15:00N 33°47' W 118°15'0 0.0
2018-Aug-13 21:17N 33°47' W 118°15'0 0.0
2018-Aug-13 21:00N 33°47' W 118°15'0 0.0
2018-Aug-13 20:30N 33°47' W 118°15'0 0.0
2018-Aug-13 20:00N 33°47' W 118°15'0 0.0
2018-Aug-13 19:31N 33°47' W 118°15'0 0.0
2018-Aug-13 19:00N 33°47' W 118°15'0 0.0
2018-Aug-13 18:30N 33°47' W 118°15'0 0.0
2018-Aug-13 18:01N 33°47' W 118°15'0 0.0
2018-Aug-13 17:30N 33°47' W 118°15'0 0.0
2018-Aug-13 17:00N 33°47' W 118°15'0 0.0
2018-Aug-13 16:30N 33°47' W 118°15'0 0.0
2018-Aug-13 16:00N 33°47' W 118°15'0 0.0
2018-Aug-13 15:30N 33°47' W 118°15'0 0.1
2018-Aug-13 15:00N 33°47' W 118°15'  
2018-Aug-09 17:13N 33°47' W 118°15'0 0.0
2018-Aug-09 17:00N 33°47' W 118°15'1 2.6
2018-Aug-09 16:30N 33°46' W 118°16'2 4.5
2018-Aug-09 16:00N 33°43' W 118°16'1 1.5
2018-Aug-09 15:30N 33°44' W 118°16'0 0.6
2018-Aug-09 15:00N 33°44' W 118°16'3 5.2
2018-Aug-09 14:30N 33°46' W 118°15'0 0.0
2018-Aug-08 21:27N 33°47' W 118°15'0 0.0
2018-Aug-08 21:00N 33°47' W 118°15'0 0.0
2018-Aug-08 20:30N 33°47' W 118°15'0 0.0
2018-Aug-08 20:00N 33°47' W 118°15'0 0.0
2018-Aug-08 19:30N 33°47' W 118°15'0 0.0
2018-Aug-08 19:00N 33°47' W 118°15'0 0.0
2018-Aug-08 18:30N 33°47' W 118°15'0 0.0
2018-Aug-08 18:00N 33°47' W 118°15'0 0.0
2018-Aug-08 17:30N 33°47' W 118°15'0 0.0
2018-Aug-08 17:00N 33°47' W 118°15'  
Track history (hours):
 
Tides and Currents Weather Stations Pressure Air Temp Water Temp Dewpoint Dewpoint Depression Visibility Wind Speed Wind Dir Waves Ship Positions

Elmer M

Owner: Manson Construction Co., SEATTLE, WA. More information available from US FCC via Universal Licensing System and Coast Guard Vessel Documentation Center.

Last reported at 2018-Aug-17 21:11 UTC. Time now 2018-Aug-19 15:19 UTC.
Position N 33°47' W 118°15'.

; draft 6.5 m.

MMSI: 365903144.

Date/timePositionNaut miles runAvg speedWind from/ knotsBaromVisibWave heightAir tempDewpointWater temp
2018-Aug-17 21:11N 33°47' W 118°15'0 0.6
2018-Aug-17 21:00N 33°47' W 118°15'3 5.2
2018-Aug-17 20:30N 33°44' W 118°17'3 5.3
2018-Aug-17 20:00N 33°43' W 118°14'2 3.8
2018-Aug-17 19:30N 33°45' W 118°13'0 0.1
2018-Aug-17 19:00N 33°45' W 118°13'0 0.6
2018-Aug-17 18:30N 33°45' W 118°13'1 2.1
2018-Aug-17 18:00N 33°46' W 118°15'1 1.2
2018-Aug-17 17:30N 33°47' W 118°15'0 0.1
2018-Aug-17 17:00N 33°47' W 118°15'0 0.0
2018-Aug-17 16:30N 33°47' W 118°15'0 0.0
2018-Aug-17 16:00N 33°47' W 118°15'0 0.1
2018-Aug-17 15:30N 33°47' W 118°15'0 0.2
2018-Aug-17 15:00N 33°47' W 118°15'  
2018-Aug-14 21:46N 33°47' W 118°15'0 0.0
2018-Aug-14 21:30N 33°47' W 118°15'0 0.0
2018-Aug-14 21:01N 33°47' W 118°15'0 0.0
2018-Aug-14 20:31N 33°47' W 118°15'0 0.0
2018-Aug-14 20:00N 33°47' W 118°15'0 0.0
2018-Aug-14 19:30N 33°47' W 118°15'0 0.0
2018-Aug-14 19:00N 33°47' W 118°15'0 0.0
2018-Aug-14 18:30N 33°47' W 118°15'0 0.0
2018-Aug-14 18:01N 33°47' W 118°15'0 0.1
2018-Aug-14 17:31N 33°47' W 118°15'0 0.0
2018-Aug-14 17:01N 33°47' W 118°15'0 0.0
2018-Aug-14 16:31N 33°47' W 118°15'0 0.1
2018-Aug-14 16:01N 33°47' W 118°15'0 0.0
2018-Aug-14 15:30N 33°47' W 118°15'0 0.0
2018-Aug-14 15:00N 33°47' W 118°15'0 0.0
2018-Aug-13 21:17N 33°47' W 118°15'0 0.0
2018-Aug-13 21:00N 33°47' W 118°15'0 0.0
2018-Aug-13 20:30N 33°47' W 118°15'0 0.0
2018-Aug-13 20:00N 33°47' W 118°15'0 0.0
2018-Aug-13 19:31N 33°47' W 118°15'0 0.0
2018-Aug-13 19:00N 33°47' W 118°15'0 0.0
2018-Aug-13 18:30N 33°47' W 118°15'0 0.0
2018-Aug-13 18:01N 33°47' W 118°15'0 0.0
2018-Aug-13 17:30N 33°47' W 118°15'0 0.0
2018-Aug-13 17:00N 33°47' W 118°15'0 0.0
2018-Aug-13 16:30N 33°47' W 118°15'0 0.0
2018-Aug-13 16:00N 33°47' W 118°15'0 0.0
2018-Aug-13 15:30N 33°47' W 118°15'0 0.1
2018-Aug-13 15:00N 33°47' W 118°15'  
2018-Aug-09 17:13N 33°47' W 118°15'0 0.0
2018-Aug-09 17:00N 33°47' W 118°15'1 2.6
2018-Aug-09 16:30N 33°46' W 118°16'2 4.5
2018-Aug-09 16:00N 33°43' W 118°16'1 1.5
2018-Aug-09 15:30N 33°44' W 118°16'0 0.6
2018-Aug-09 15:00N 33°44' W 118°16'3 5.2
2018-Aug-09 14:30N 33°46' W 118°15'0 0.0
2018-Aug-08 21:27N 33°47' W 118°15'0 0.0
2018-Aug-08 21:00N 33°47' W 118°15'0 0.0
2018-Aug-08 20:30N 33°47' W 118°15'0 0.0
2018-Aug-08 20:00N 33°47' W 118°15'0 0.0
2018-Aug-08 19:30N 33°47' W 118°15'0 0.0
2018-Aug-08 19:00N 33°47' W 118°15'0 0.0
2018-Aug-08 18:30N 33°47' W 118°15'0 0.0
2018-Aug-08 18:00N 33°47' W 118°15'0 0.0
2018-Aug-08 17:30N 33°47' W 118°15'0 0.0
2018-Aug-08 17:00N 33°47' W 118°15'  

Dump ship's entire track history